createdAt,value
2019-05-19T00:02:18.008Z,8.26
2019-05-19T00:04:46.443Z,8.23
2019-05-19T00:07:15.203Z,8.21
2019-05-19T00:09:43.703Z,8.18
2019-05-19T00:12:12.192Z,8.18
2019-05-19T00:14:40.611Z,8.13
2019-05-19T00:17:09.009Z,8.11
2019-05-19T00:19:37.527Z,8.08
2019-05-19T00:22:05.936Z,8.06
2019-05-19T00:24:34.337Z,8.04
2019-05-19T00:27:02.731Z,8.03
2019-05-19T00:29:31.173Z,7.97
2019-05-19T00:31:59.665Z,7.94
2019-05-19T00:34:28.071Z,7.93
2019-05-19T00:36:56.466Z,7.91
2019-05-19T00:39:25.357Z,7.88
2019-05-19T00:41:53.812Z,7.82
2019-05-19T00:44:22.218Z,7.76
2019-05-19T00:46:50.607Z,7.75
2019-05-19T00:49:19.380Z,7.72
2019-05-19T00:51:47.785Z,7.61
2019-05-19T00:54:16.185Z,7.68
2019-05-19T00:56:45.018Z,7.64
2019-05-19T00:59:14.252Z,7.65
2019-05-19T01:01:43.004Z,7.63
2019-05-19T01:04:11.404Z,7.61
2019-05-19T01:06:39.799Z,7.64
2019-05-19T01:09:08.547Z,7.66
2019-05-19T01:11:37.266Z,7.68
2019-05-19T01:14:05.736Z,7.66
2019-05-19T01:16:34.127Z,7.66
2019-05-19T01:19:02.538Z,7.65
2019-05-19T01:21:31.847Z,7.67
2019-05-19T01:24:00.257Z,7.63
2019-05-19T01:26:28.942Z,7.65
2019-05-19T01:28:57.352Z,7.65
2019-05-19T01:31:25.805Z,7.64
2019-05-19T01:33:54.244Z,7.65
2019-05-19T01:36:22.640Z,7.67
2019-05-19T01:38:51.038Z,7.66
2019-05-19T01:41:19.422Z,7.70
2019-05-19T01:43:47.825Z,7.75
2019-05-19T01:46:16.221Z,7.81
2019-05-19T01:48:44.902Z,7.87
2019-05-19T01:51:13.260Z,7.94
2019-05-19T01:53:41.663Z,7.99
2019-05-19T01:56:10.322Z,8.04
2019-05-19T01:58:38.714Z,8.16
2019-05-19T02:01:07.383Z,8.27
2019-05-19T02:03:35.783Z,8.35
2019-05-19T02:06:04.452Z,8.39
2019-05-19T02:08:32.859Z,8.52
2019-05-19T02:11:01.247Z,8.57
2019-05-19T02:13:29.667Z,8.64
2019-05-19T02:15:58.061Z,8.68
2019-05-19T02:18:26.459Z,8.72
2019-05-19T02:20:54.846Z,8.75
2019-05-19T02:23:23.254Z,8.80
2019-05-19T02:25:51.639Z,8.87
2019-05-19T02:28:20.037Z,8.93
2019-05-19T02:30:48.428Z,8.95
2019-05-19T02:33:16.818Z,8.99
2019-05-19T02:35:45.551Z,9.02
2019-05-19T02:38:13.932Z,9.04
2019-05-19T02:40:45.368Z,9.07
2019-05-19T02:43:15.770Z,9.09
2019-05-19T02:45:45.603Z,9.11
2019-05-19T02:48:14.436Z,9.13
2019-05-19T02:50:52.360Z,9.14
2019-05-19T02:53:17.113Z,9.13
2019-05-19T02:55:46.266Z,9.14
2019-05-19T02:58:14.997Z,9.10
2019-05-19T03:00:43.765Z,9.02
2019-05-19T03:03:12.237Z,8.94
2019-05-19T03:05:40.622Z,8.90
2019-05-19T03:08:09.498Z,8.86
2019-05-19T03:10:38.181Z,8.82
2019-05-19T03:13:06.586Z,8.82
2019-05-19T03:15:35.248Z,8.79
2019-05-19T03:18:03.636Z,8.76
2019-05-19T03:20:32.103Z,8.75
2019-05-19T03:23:00.491Z,8.74
2019-05-19T03:25:29.181Z,8.70
2019-05-19T03:27:57.866Z,8.68
2019-05-19T03:30:28.187Z,8.68
2019-05-19T03:33:01.359Z,8.67
2019-05-19T03:35:29.741Z,8.66
2019-05-19T03:37:58.125Z,8.62
2019-05-19T03:40:26.527Z,8.61
2019-05-19T03:42:54.924Z,8.62
2019-05-19T03:45:23.600Z,8.63
2019-05-19T03:47:52.010Z,8.62
2019-05-19T03:50:20.391Z,8.62
2019-05-19T03:52:49.130Z,8.63
2019-05-19T03:55:17.604Z,8.62
2019-05-19T03:57:45.996Z,8.64
2019-05-19T04:00:14.731Z,8.64
2019-05-19T04:02:43.113Z,8.67
2019-05-19T04:05:11.795Z,8.70
2019-05-19T04:07:40.189Z,8.75
2019-05-19T04:10:09.314Z,8.77
2019-05-19T04:12:37.706Z,8.80
2019-05-19T04:15:06.938Z,8.79
2019-05-19T04:17:35.323Z,8.75
2019-05-19T04:20:04.694Z,8.77
2019-05-19T04:22:33.082Z,8.80
2019-05-19T04:25:01.481Z,8.79
2019-05-19T04:27:29.862Z,8.85
2019-05-19T04:29:58.627Z,8.84
2019-05-19T04:32:27.023Z,8.86
2019-05-19T04:34:55.412Z,8.88
2019-05-19T04:37:23.825Z,8.87
2019-05-19T04:39:52.548Z,8.88
2019-05-19T04:42:21.252Z,8.88
2019-05-19T04:44:49.634Z,8.93
2019-05-19T04:47:18.017Z,9.01
2019-05-19T04:49:46.416Z,9.05
2019-05-19T04:52:14.810Z,9.08
2019-05-19T04:54:43.202Z,9.15
2019-05-19T04:57:11.912Z,9.20
2019-05-19T04:59:40.330Z,9.30
2019-05-19T05:02:08.740Z,9.39
2019-05-19T05:04:37.140Z,9.51
2019-05-19T05:07:05.547Z,9.58
2019-05-19T05:09:33.945Z,9.69
2019-05-19T05:12:02.595Z,9.79
2019-05-19T05:14:30.986Z,9.91
2019-05-19T05:16:59.662Z,10.04
2019-05-19T05:19:28.052Z,10.16
2019-05-19T05:21:56.723Z,10.27
2019-05-19T05:24:28.469Z,10.39
2019-05-19T05:26:55.556Z,10.49
2019-05-19T05:29:23.953Z,10.61
2019-05-19T05:31:52.362Z,10.80
2019-05-19T05:34:21.081Z,10.94
2019-05-19T05:36:49.485Z,11.09
2019-05-19T05:39:17.896Z,11.23
2019-05-19T05:41:46.629Z,11.34
2019-05-19T05:44:15.023Z,11.50
2019-05-19T05:46:43.418Z,11.62
2019-05-19T05:49:12.080Z,11.67
2019-05-19T05:51:40.778Z,11.69
2019-05-19T05:54:09.456Z,11.66
2019-05-19T05:56:37.861Z,11.75
2019-05-19T05:59:06.518Z,11.84
2019-05-19T06:01:35.208Z,11.88
2019-05-19T06:04:03.829Z,11.96
2019-05-19T06:06:32.232Z,12.16
2019-05-19T06:09:00.956Z,12.24
2019-05-19T06:11:29.645Z,12.42
2019-05-19T06:13:58.330Z,12.46
2019-05-19T06:16:27.017Z,12.50
2019-05-19T06:18:56.859Z,12.44
2019-05-19T06:21:25.388Z,12.55
2019-05-19T06:23:53.777Z,12.63
2019-05-19T06:26:22.183Z,12.88
2019-05-19T06:28:50.857Z,12.89
2019-05-19T06:31:19.291Z,12.85
2019-05-19T06:33:47.679Z,12.99
2019-05-19T06:36:16.081Z,13.04
2019-05-19T06:38:44.803Z,13.09
2019-05-19T06:41:13.443Z,13.07
2019-05-19T06:43:42.156Z,12.98
2019-05-19T06:46:10.549Z,13.16
2019-05-19T06:48:38.934Z,13.14
2019-05-19T06:51:07.336Z,13.35
2019-05-19T06:53:35.737Z,13.60
2019-05-19T06:56:04.106Z,13.89
2019-05-19T06:58:32.490Z,14.04
2019-05-19T07:01:00.887Z,14.31
2019-05-19T07:03:29.630Z,14.46
2019-05-19T07:05:58.307Z,14.28
2019-05-19T07:08:26.672Z,14.39
2019-05-19T07:10:55.073Z,14.41
2019-05-19T07:13:23.461Z,14.58
2019-05-19T07:15:52.118Z,14.85
2019-05-19T07:18:20.796Z,14.97
2019-05-19T07:20:49.195Z,15.15
2019-05-19T07:23:27.818Z,15.12
2019-05-19T07:25:47.689Z,15.18
2019-05-19T07:28:16.075Z,15.33
2019-05-19T07:30:45.055Z,15.42
2019-05-19T07:33:13.449Z,15.09
2019-05-19T07:35:42.112Z,15.04
2019-05-19T07:38:10.510Z,14.98
2019-05-19T07:40:38.894Z,14.88
2019-05-19T07:43:07.562Z,14.86
2019-05-19T07:45:35.936Z,14.95
2019-05-19T07:48:04.331Z,14.93
2019-05-19T07:50:32.717Z,14.96
2019-05-19T07:53:01.131Z,15.05
2019-05-19T07:55:29.501Z,15.10
2019-05-19T07:57:58.327Z,15.23
2019-05-19T08:00:26.714Z,15.51
2019-05-19T08:02:55.174Z,15.70
2019-05-19T08:05:23.903Z,15.94
2019-05-19T08:07:52.306Z,16.13
2019-05-19T08:10:20.969Z,16.32
2019-05-19T08:12:49.370Z,16.45
2019-05-19T08:15:18.243Z,16.24
2019-05-19T08:17:46.666Z,16.16
2019-05-19T08:20:15.990Z,15.90
2019-05-19T08:22:44.385Z,15.79
2019-05-19T08:25:13.008Z,15.66
2019-05-19T08:27:41.391Z,15.64
2019-05-19T08:30:10.328Z,15.59
2019-05-19T08:32:39.045Z,15.68
2019-05-19T08:35:08.241Z,15.64
2019-05-19T08:37:36.650Z,15.75
2019-05-19T08:40:05.885Z,15.61
2019-05-19T08:42:34.608Z,15.58
2019-05-19T08:45:03.174Z,15.68
2019-05-19T08:47:31.569Z,15.82
2019-05-19T08:50:00.260Z,15.75
2019-05-19T08:52:28.663Z,15.69
2019-05-19T08:54:57.036Z,15.64
2019-05-19T08:57:25.520Z,15.77
2019-05-19T08:59:54.286Z,15.81
2019-05-19T09:02:22.682Z,15.63
2019-05-19T09:04:51.064Z,15.76
2019-05-19T09:07:19.455Z,15.87
2019-05-19T09:09:48.029Z,15.78
2019-05-19T09:12:17.108Z,15.77
2019-05-19T09:14:45.496Z,15.75
2019-05-19T09:17:14.214Z,15.75
2019-05-19T09:19:42.570Z,15.84
2019-05-19T09:22:11.253Z,15.90
2019-05-19T09:24:39.631Z,15.87
2019-05-19T09:27:08.026Z,15.96
2019-05-19T09:29:36.402Z,15.94
2019-05-19T09:32:04.803Z,16.16
2019-05-19T09:34:33.485Z,16.38
2019-05-19T09:37:01.905Z,16.35
2019-05-19T09:39:30.256Z,16.46
2019-05-19T09:41:58.656Z,16.53
2019-05-19T09:44:27.046Z,16.45
2019-05-19T09:46:55.445Z,16.50
2019-05-19T09:49:34.353Z,16.87
2019-05-19T09:52:04.981Z,16.94
2019-05-19T09:54:44.577Z,16.78
2019-05-19T09:57:03.848Z,17.00
2019-05-19T09:59:32.222Z,17.00
2019-05-19T10:02:00.609Z,17.12
2019-05-19T10:04:29.755Z,17.46
2019-05-19T10:06:58.153Z,17.60
2019-05-19T10:09:39.009Z,17.67
2019-05-19T10:12:08.828Z,18.05
2019-05-19T10:14:37.518Z,18.50
2019-05-19T10:17:05.925Z,18.37
2019-05-19T10:19:34.585Z,18.30
2019-05-19T10:22:02.981Z,18.40
2019-05-19T10:24:31.370Z,18.65
2019-05-19T10:26:59.763Z,18.96
2019-05-19T10:29:28.294Z,18.96
2019-05-19T10:31:56.720Z,19.08
2019-05-19T10:34:25.103Z,19.22
2019-05-19T10:36:53.752Z,19.32
2019-05-19T10:39:22.133Z,19.30
2019-05-19T10:41:50.518Z,19.71
2019-05-19T10:44:18.913Z,19.47
2019-05-19T10:46:47.587Z,18.97
2019-05-19T10:49:15.977Z,18.80
2019-05-19T10:51:44.358Z,18.81
2019-05-19T10:54:12.752Z,18.78
2019-05-19T10:56:41.190Z,18.63
2019-05-19T10:59:09.580Z,18.71
2019-05-19T11:01:37.965Z,18.71
2019-05-19T11:04:06.366Z,18.84
2019-05-19T11:06:34.749Z,19.02
2019-05-19T11:09:04.831Z,18.99
2019-05-19T11:11:33.217Z,18.87
2019-05-19T11:14:01.610Z,18.47
2019-05-19T11:16:29.999Z,18.46
2019-05-19T11:18:58.391Z,18.55
2019-05-19T11:21:27.035Z,18.90
2019-05-19T11:23:55.425Z,18.95
2019-05-19T11:26:23.809Z,19.28
2019-05-19T11:28:52.207Z,19.27
2019-05-19T11:31:20.595Z,19.61
2019-05-19T11:33:49.251Z,19.13
2019-05-19T11:36:17.634Z,18.89
2019-05-19T11:38:46.100Z,18.89
2019-05-19T11:41:14.507Z,18.74
2019-05-19T11:43:42.877Z,18.71
2019-05-19T11:46:11.548Z,18.93
2019-05-19T11:48:39.947Z,19.07
2019-05-19T11:51:08.335Z,19.48
2019-05-19T11:53:36.722Z,19.60
2019-05-19T11:56:08.017Z,19.78
2019-05-19T11:58:35.300Z,19.91
2019-05-19T12:01:03.748Z,19.81
2019-05-19T12:03:32.147Z,20.03
2019-05-19T12:06:00.530Z,20.20
2019-05-19T12:08:28.933Z,20.42
2019-05-19T12:10:57.313Z,20.32
2019-05-19T12:13:25.976Z,20.23
2019-05-19T12:15:54.374Z,20.38
2019-05-19T12:18:23.089Z,20.50
2019-05-19T12:20:51.477Z,20.58
2019-05-19T12:23:19.871Z,20.46
2019-05-19T12:25:49.794Z,20.15
2019-05-19T12:28:18.189Z,20.16
2019-05-19T12:30:46.885Z,20.19
2019-05-19T12:33:15.296Z,20.06
2019-05-19T12:35:44.064Z,19.96
2019-05-19T12:38:12.449Z,19.89
2019-05-19T12:40:42.012Z,19.79
2019-05-19T12:43:10.399Z,19.84
2019-05-19T12:45:38.862Z,19.95
2019-05-19T12:48:07.414Z,19.85
2019-05-19T12:50:36.069Z,19.82
2019-05-19T12:53:04.451Z,19.74
2019-05-19T12:55:32.844Z,19.83
2019-05-19T12:58:01.224Z,19.76
2019-05-19T13:00:29.639Z,19.76
2019-05-19T13:02:58.276Z,19.94
2019-05-19T13:05:26.967Z,19.90
2019-05-19T13:07:55.347Z,19.69
2019-05-19T13:10:23.807Z,19.36
2019-05-19T13:12:52.215Z,19.34
2019-05-19T13:15:20.672Z,19.34
2019-05-19T13:17:49.051Z,19.14
2019-05-19T13:20:17.678Z,19.23
2019-05-19T13:22:46.334Z,19.22
2019-05-19T13:25:14.793Z,19.14
2019-05-19T13:27:43.177Z,19.14
2019-05-19T13:30:11.985Z,18.95
2019-05-19T13:32:40.368Z,18.77
2019-05-19T13:35:09.358Z,18.83
2019-05-19T13:37:37.743Z,18.97
2019-05-19T13:40:06.786Z,19.09
2019-05-19T13:42:35.513Z,19.09
2019-05-19T13:45:08.396Z,19.11
2019-05-19T13:47:37.087Z,19.17
2019-05-19T13:50:08.755Z,19.27
2019-05-19T13:52:37.212Z,19.29
2019-05-19T13:55:07.178Z,19.49
2019-05-19T13:57:35.844Z,19.22
2019-05-19T14:00:05.739Z,19.37
2019-05-19T14:02:34.127Z,19.32
2019-05-19T14:05:02.539Z,19.02
2019-05-19T14:07:30.910Z,18.97
2019-05-19T14:09:59.305Z,18.88
2019-05-19T14:12:27.687Z,18.66
2019-05-19T14:14:56.092Z,18.44
2019-05-19T14:17:24.481Z,18.25
2019-05-19T14:19:53.241Z,18.18
2019-05-19T14:22:21.635Z,17.89
2019-05-19T14:24:50.013Z,17.89
2019-05-19T14:27:29.370Z,17.55
2019-05-19T14:29:48.790Z,17.10
2019-05-19T14:32:17.179Z,16.76
2019-05-19T14:34:45.579Z,16.48
2019-05-19T14:37:14.233Z,16.20
2019-05-19T14:39:42.624Z,15.99
2019-05-19T14:42:12.670Z,15.80
2019-05-19T14:44:41.045Z,15.57
2019-05-19T14:47:09.801Z,15.26
2019-05-19T14:49:38.193Z,14.71
2019-05-19T14:52:06.585Z,14.21
2019-05-19T14:54:34.964Z,13.77
2019-05-19T14:57:03.360Z,13.26
2019-05-19T14:59:31.749Z,12.94
2019-05-19T15:02:00.136Z,12.56
2019-05-19T15:04:28.525Z,12.24
2019-05-19T15:06:57.247Z,11.95
2019-05-19T15:09:25.653Z,11.87
2019-05-19T15:11:54.322Z,11.79
2019-05-19T15:14:22.699Z,11.72
2019-05-19T15:16:51.094Z,11.68
2019-05-19T15:19:19.482Z,11.68
2019-05-19T15:21:47.883Z,11.61
2019-05-19T15:24:16.266Z,11.55
2019-05-19T15:26:44.674Z,11.55
2019-05-19T15:29:13.064Z,11.57
2019-05-19T15:31:41.464Z,11.61
2019-05-19T15:34:09.862Z,11.60
2019-05-19T15:36:38.258Z,11.71
2019-05-19T15:39:06.790Z,11.81
2019-05-19T15:41:35.276Z,11.94
2019-05-19T15:44:03.610Z,12.12
2019-05-19T15:46:32.004Z,12.17
2019-05-19T15:49:00.394Z,12.23
2019-05-19T15:51:34.787Z,12.37
2019-05-19T15:53:58.909Z,12.36
2019-05-19T15:56:28.059Z,12.32
2019-05-19T15:58:56.443Z,12.40
2019-05-19T16:01:24.897Z,12.44
2019-05-19T16:03:53.298Z,12.53
2019-05-19T16:06:22.031Z,12.53
2019-05-19T16:08:50.719Z,12.55
2019-05-19T16:11:19.114Z,12.56
2019-05-19T16:13:47.789Z,12.60
2019-05-19T16:16:16.193Z,12.74
2019-05-19T16:18:44.574Z,12.67
2019-05-19T16:21:12.971Z,12.66
2019-05-19T16:23:41.347Z,12.58
2019-05-19T16:26:09.741Z,12.61
2019-05-19T16:28:38.125Z,12.69
2019-05-19T16:31:06.861Z,12.63
2019-05-19T16:33:35.249Z,12.63
2019-05-19T16:36:03.636Z,12.63
2019-05-19T16:38:32.031Z,12.70
2019-05-19T16:41:00.413Z,12.74
2019-05-19T16:43:28.807Z,12.83
2019-05-19T16:45:57.192Z,12.88
2019-05-19T16:48:26.128Z,12.88
2019-05-19T16:50:54.522Z,12.90
2019-05-19T16:53:22.919Z,12.94
2019-05-19T16:55:51.318Z,12.94
2019-05-19T16:58:21.489Z,12.95
2019-05-19T17:00:49.894Z,12.96
2019-05-19T17:03:18.280Z,13.00
2019-05-19T17:05:47.044Z,12.90
2019-05-19T17:08:15.433Z,12.85
2019-05-19T17:10:43.841Z,12.95
2019-05-19T17:13:12.241Z,13.02
2019-05-19T17:15:40.623Z,13.07
2019-05-19T17:18:09.338Z,13.15
2019-05-19T17:20:37.737Z,13.20
2019-05-19T17:23:06.157Z,13.23
2019-05-19T17:25:34.543Z,13.27
2019-05-19T17:28:03.262Z,13.29
2019-05-19T17:30:31.659Z,13.39
2019-05-19T17:33:00.074Z,13.37
2019-05-19T17:35:28.458Z,13.34
2019-05-19T17:37:56.851Z,13.34
2019-05-19T17:40:25.571Z,13.26
2019-05-19T17:42:54.255Z,13.26
2019-05-19T17:45:23.699Z,13.20
2019-05-19T17:47:53.658Z,13.16
2019-05-19T17:50:33.367Z,13.14
2019-05-19T17:53:02.536Z,13.08
2019-05-19T17:55:33.018Z,13.00
2019-05-19T17:58:02.155Z,12.90
2019-05-19T18:00:39.333Z,12.81
2019-05-19T18:03:09.120Z,12.74
2019-05-19T18:05:37.741Z,12.64
2019-05-19T18:08:06.509Z,12.54
2019-05-19T18:10:35.055Z,12.49
2019-05-19T18:13:03.793Z,12.43
2019-05-19T18:15:32.178Z,12.33
2019-05-19T18:18:00.962Z,12.29
2019-05-19T18:20:29.661Z,12.25
2019-05-19T18:22:58.177Z,12.19
2019-05-19T18:25:26.610Z,12.18
2019-05-19T18:27:54.981Z,12.10
2019-05-19T18:30:25.524Z,12.04
2019-05-19T18:32:53.913Z,12.01
2019-05-19T18:35:22.313Z,11.91
2019-05-19T18:37:50.693Z,11.90
2019-05-19T18:40:19.565Z,11.83
2019-05-19T18:42:47.953Z,11.75
2019-05-19T18:45:16.697Z,11.73
2019-05-19T18:47:45.456Z,11.69
2019-05-19T18:50:14.290Z,11.62
2019-05-19T18:52:42.978Z,11.57
2019-05-19T18:55:11.719Z,11.55
2019-05-19T18:57:40.119Z,11.52
2019-05-19T19:00:09.062Z,11.54
2019-05-19T19:02:37.518Z,11.44
2019-05-19T19:05:07.236Z,11.37
2019-05-19T19:07:55.400Z,11.30
2019-05-19T19:10:25.433Z,11.29
2019-05-19T19:12:54.082Z,11.26
2019-05-19T19:15:22.720Z,11.23
2019-05-19T19:17:51.119Z,11.21
2019-05-19T19:20:19.699Z,11.19
2019-05-19T19:22:48.146Z,11.21
2019-05-19T19:25:16.538Z,11.17
2019-05-19T19:27:44.931Z,11.18
2019-05-19T19:30:13.864Z,11.16
2019-05-19T19:32:42.281Z,11.16
2019-05-19T19:35:10.806Z,11.15
2019-05-19T19:37:39.193Z,11.18
2019-05-19T19:40:08.156Z,11.22
2019-05-19T19:42:36.891Z,11.26
2019-05-19T19:45:07.013Z,11.27
2019-05-19T19:47:35.398Z,11.25
2019-05-19T19:50:05.774Z,11.26
2019-05-19T19:52:34.227Z,11.24
2019-05-19T19:55:02.626Z,11.23
2019-05-19T19:57:31.254Z,11.26
2019-05-19T19:59:59.657Z,11.26
2019-05-19T20:02:28.150Z,11.29
2019-05-19T20:04:56.548Z,11.28
2019-05-19T20:07:24.940Z,11.27
2019-05-19T20:09:53.670Z,11.25
2019-05-19T20:12:22.055Z,11.25
2019-05-19T20:14:50.445Z,11.31
2019-05-19T20:17:18.833Z,11.29
2019-05-19T20:19:47.237Z,11.28
2019-05-19T20:22:15.614Z,11.28
2019-05-19T20:24:43.999Z,11.25
2019-05-19T20:27:12.500Z,11.26
2019-05-19T20:29:41.211Z,11.28
2019-05-19T20:32:09.608Z,11.24
2019-05-19T20:34:38.005Z,11.22
2019-05-19T20:37:06.660Z,11.20
2019-05-19T20:39:35.055Z,11.19
2019-05-19T20:42:03.518Z,11.20
2019-05-19T20:44:32.229Z,11.20
2019-05-19T20:47:00.617Z,11.14
2019-05-19T20:49:29.003Z,11.09
2019-05-19T20:51:57.392Z,11.07
2019-05-19T20:54:25.786Z,10.98
2019-05-19T20:56:54.173Z,10.96
2019-05-19T20:59:22.558Z,10.93
2019-05-19T21:01:50.942Z,10.89
2019-05-19T21:04:19.346Z,10.87
2019-05-19T21:06:48.084Z,10.87
2019-05-19T21:09:16.774Z,10.81
2019-05-19T21:11:45.471Z,10.79
2019-05-19T21:14:13.847Z,10.77
2019-05-19T21:16:42.236Z,10.74
2019-05-19T21:19:10.617Z,10.74
2019-05-19T21:21:39.011Z,10.75
2019-05-19T21:24:07.658Z,10.75
2019-05-19T21:26:36.305Z,10.73
2019-05-19T21:29:04.759Z,10.71
2019-05-19T21:31:33.397Z,10.71
2019-05-19T21:34:01.786Z,10.74
2019-05-19T21:36:30.183Z,10.65
2019-05-19T21:38:58.577Z,10.64
2019-05-19T21:41:27.238Z,10.63
2019-05-19T21:43:55.618Z,10.67
2019-05-19T21:46:24.015Z,10.68
2019-05-19T21:48:52.406Z,10.69
2019-05-19T21:51:20.813Z,10.69
2019-05-19T21:53:49.368Z,10.70
2019-05-19T21:56:17.757Z,10.70
2019-05-19T21:58:46.141Z,10.68
2019-05-19T22:01:22.921Z,10.67
2019-05-19T22:03:45.020Z,10.64
2019-05-19T22:06:13.644Z,10.64
2019-05-19T22:08:42.036Z,10.62
2019-05-19T22:11:10.417Z,10.62
2019-05-19T22:13:38.814Z,10.59
2019-05-19T22:16:12.741Z,10.56
2019-05-19T22:18:37.296Z,10.53
2019-05-19T22:21:05.926Z,10.50
2019-05-19T22:23:34.571Z,10.48
2019-05-19T22:26:03.129Z,10.50
2019-05-19T22:28:31.834Z,10.48
2019-05-19T22:31:00.220Z,10.46
2019-05-19T22:33:28.607Z,10.48
2019-05-19T22:35:57.006Z,10.49
2019-05-19T22:38:25.396Z,10.46
2019-05-19T22:40:53.778Z,10.45
2019-05-19T22:43:22.170Z,10.44
2019-05-19T22:45:50.550Z,10.45
2019-05-19T22:48:18.941Z,10.44
2019-05-19T22:50:47.324Z,10.43
2019-05-19T22:53:15.711Z,10.37
2019-05-19T22:55:44.364Z,10.38
2019-05-19T22:58:12.755Z,10.32
2019-05-19T23:00:41.379Z,10.31
2019-05-19T23:03:09.762Z,10.27
2019-05-19T23:05:38.233Z,10.24
2019-05-19T23:08:06.972Z,10.22
2019-05-19T23:10:35.359Z,10.16
2019-05-19T23:13:03.990Z,10.15
2019-05-19T23:15:32.619Z,10.14
2019-05-19T23:18:01.020Z,10.13
2019-05-19T23:20:29.689Z,10.13
2019-05-19T23:22:58.079Z,10.10
2019-05-19T23:25:26.752Z,10.09
2019-05-19T23:27:55.156Z,10.10
2019-05-19T23:30:23.767Z,10.10
2019-05-19T23:32:52.148Z,10.11
2019-05-19T23:35:20.542Z,10.12
2019-05-19T23:37:48.927Z,10.15
2019-05-19T23:40:17.326Z,10.14
2019-05-19T23:42:45.714Z,10.14
2019-05-19T23:45:14.714Z,10.13
2019-05-19T23:47:43.088Z,10.15
2019-05-19T23:50:11.977Z,10.16
2019-05-19T23:52:40.389Z,10.17
2019-05-19T23:55:10.223Z,10.18
2019-05-19T23:57:38.854Z,10.20
